createdAt,value
2019-03-12T00:00:57.602Z,77.00
2019-03-12T00:03:26.822Z,77.00
2019-03-12T00:05:55.996Z,77.08
2019-03-12T00:08:25.183Z,77.32
2019-03-12T00:10:54.409Z,77.57
2019-03-12T00:13:23.605Z,77.37
2019-03-12T00:15:52.886Z,77.31
2019-03-12T00:18:22.128Z,77.20
2019-03-12T00:20:51.394Z,77.47
2019-03-12T00:23:20.619Z,77.21
2019-03-12T00:25:49.804Z,77.18
2019-03-12T00:28:19.036Z,77.34
2019-03-12T00:30:48.228Z,77.59
2019-03-12T00:33:17.435Z,77.81
2019-03-12T00:35:46.629Z,77.89
2019-03-12T00:38:15.872Z,77.59
2019-03-12T00:40:45.078Z,77.37
2019-03-12T00:43:14.272Z,77.50
2019-03-12T00:45:43.512Z,77.12
2019-03-12T00:48:12.724Z,77.09
2019-03-12T00:50:41.947Z,76.97
2019-03-12T00:53:11.149Z,77.06
2019-03-12T00:55:40.350Z,77.14
2019-03-12T00:58:09.565Z,77.08
2019-03-12T01:00:38.783Z,76.85
2019-03-12T01:03:08.008Z,76.50
2019-03-12T01:05:37.188Z,76.40
2019-03-12T01:08:06.397Z,76.48
2019-03-12T01:10:35.617Z,76.69
2019-03-12T01:13:16.989Z,77.05
2019-03-12T01:15:46.581Z,77.35
2019-03-12T01:18:15.897Z,77.27
2019-03-12T01:20:45.071Z,77.77
2019-03-12T01:23:14.296Z,77.44
2019-03-12T01:25:43.499Z,77.70
2019-03-12T01:28:12.722Z,77.88
2019-03-12T01:30:41.919Z,77.77
2019-03-12T01:33:11.121Z,77.71
2019-03-12T01:35:40.339Z,77.77
2019-03-12T01:38:09.533Z,77.63
2019-03-12T01:40:38.807Z,77.48
2019-03-12T01:43:08.002Z,77.74
2019-03-12T01:45:37.252Z,77.52
2019-03-12T01:48:06.457Z,77.66
2019-03-12T01:50:35.712Z,77.76
2019-03-12T01:53:04.902Z,77.69
2019-03-12T01:55:34.146Z,77.81
2019-03-12T01:58:03.346Z,77.85
2019-03-12T02:00:32.546Z,77.64
2019-03-12T02:03:02.161Z,77.85
2019-03-12T02:05:31.353Z,77.68
2019-03-12T02:08:00.548Z,77.67
2019-03-12T02:10:29.756Z,77.72
2019-03-12T02:12:58.976Z,77.66
2019-03-12T02:15:28.217Z,77.65
2019-03-12T02:17:57.393Z,77.90
2019-03-12T02:23:01.333Z,78.05
2019-03-12T02:25:30.598Z,77.96
2019-03-12T02:27:59.825Z,77.96
2019-03-12T02:30:29.049Z,78.24
2019-03-12T02:32:58.266Z,78.16
2019-03-12T02:35:27.518Z,78.01
2019-03-12T02:37:56.785Z,77.99
2019-03-12T02:40:26.004Z,78.10
2019-03-12T02:42:55.259Z,77.96
2019-03-12T02:45:24.418Z,77.76
2019-03-12T02:47:54.918Z,77.83
2019-03-12T02:50:24.079Z,77.85
2019-03-12T02:52:53.280Z,77.95
2019-03-12T02:55:22.525Z,77.93
2019-03-12T02:57:51.710Z,78.00
2019-03-12T03:00:21.799Z,77.68
2019-03-12T03:02:51.425Z,77.66
2019-03-12T03:05:20.918Z,77.52
2019-03-12T03:07:52.440Z,77.43
2019-03-12T03:10:21.745Z,77.30
2019-03-12T03:12:51.004Z,77.39
2019-03-12T03:15:22.129Z,77.23
2019-03-12T03:17:51.320Z,76.67
2019-03-12T03:20:20.526Z,76.69
2019-03-12T03:22:49.722Z,76.80
2019-03-12T03:25:18.978Z,76.85
2019-03-12T03:27:48.205Z,76.96
2019-03-12T03:30:19.737Z,77.11
2019-03-12T03:32:48.943Z,77.12
2019-03-12T03:35:18.351Z,77.08
2019-03-12T03:37:47.548Z,77.20
2019-03-12T03:40:20.457Z,77.27
2019-03-12T03:42:49.830Z,77.27
2019-03-12T03:45:19.265Z,77.20
2019-03-12T03:47:48.578Z,77.35
2019-03-12T03:50:17.861Z,77.40
2019-03-12T03:52:47.013Z,77.38
2019-03-12T03:55:16.974Z,77.54
2019-03-12T03:57:46.181Z,77.58
2019-03-12T04:00:17.915Z,77.56
2019-03-12T04:02:47.222Z,77.51
2019-03-12T04:05:16.626Z,77.51
2019-03-12T04:07:45.987Z,77.51
2019-03-12T04:10:15.932Z,77.53
2019-03-12T04:12:45.197Z,77.48
2019-03-12T04:15:14.444Z,77.58
2019-03-12T04:17:43.681Z,77.76
2019-03-12T04:20:13.298Z,77.86
2019-03-12T04:22:42.573Z,78.05
2019-03-12T04:25:11.861Z,78.18
2019-03-12T04:27:41.051Z,78.29
2019-03-12T04:30:12.240Z,78.30
2019-03-12T04:32:41.430Z,78.31
2019-03-12T04:35:11.388Z,78.42
2019-03-12T04:37:40.595Z,78.44
2019-03-12T04:40:10.348Z,78.44
2019-03-12T04:42:39.521Z,78.49
2019-03-12T04:45:10.414Z,78.62
2019-03-12T04:47:39.619Z,78.68
2019-03-12T04:50:08.970Z,78.76
2019-03-12T04:52:38.120Z,78.85
2019-03-12T04:55:07.758Z,78.90
2019-03-12T04:57:36.982Z,78.87
2019-03-12T05:00:07.249Z,78.90
2019-03-12T05:02:36.433Z,78.92
2019-03-12T05:05:06.293Z,78.93
2019-03-12T05:07:35.501Z,79.09
2019-03-12T05:10:05.487Z,79.18
2019-03-12T05:12:34.717Z,79.25
2019-03-12T05:15:04.063Z,79.32
2019-03-12T05:17:34.823Z,79.33
2019-03-12T05:20:04.231Z,79.36
2019-03-12T05:22:33.459Z,79.27
2019-03-12T05:25:02.644Z,79.30
2019-03-12T05:27:31.844Z,79.31
2019-03-12T05:30:01.120Z,79.27
2019-03-12T05:32:30.370Z,79.31
2019-03-12T05:34:59.546Z,79.31
2019-03-12T05:37:28.750Z,79.33
2019-03-12T05:39:57.963Z,79.37
2019-03-12T05:42:27.281Z,79.33
2019-03-12T05:44:56.550Z,79.28
2019-03-12T05:47:25.758Z,79.29
2019-03-12T05:49:54.990Z,79.30
2019-03-12T05:52:24.206Z,79.41
2019-03-12T05:54:53.408Z,79.39
2019-03-12T05:57:22.620Z,79.38
2019-03-12T05:59:51.862Z,79.43
2019-03-12T06:02:21.074Z,79.43
2019-03-12T06:04:50.451Z,79.40
2019-03-12T06:07:19.657Z,79.37
2019-03-12T06:09:48.865Z,79.28
2019-03-12T06:12:18.075Z,79.22
2019-03-12T06:14:47.262Z,79.16
2019-03-12T06:17:16.500Z,79.09
2019-03-12T06:19:45.717Z,79.02
2019-03-12T06:22:14.905Z,78.99
2019-03-12T06:24:44.131Z,78.93
2019-03-12T06:27:13.365Z,78.87
2019-03-12T06:29:42.571Z,78.93
2019-03-12T06:32:36.497Z,78.92
2019-03-12T06:35:12.711Z,78.82
2019-03-12T06:37:50.198Z,78.75
2019-03-12T06:40:33.021Z,78.83
2019-03-12T06:43:19.605Z,78.58
2019-03-12T06:45:56.204Z,78.31
2019-03-12T06:48:37.555Z,78.13
2019-03-12T06:51:15.888Z,77.53
2019-03-12T06:54:01.354Z,77.33
2019-03-12T06:57:01.674Z,75.50
2019-03-12T06:59:58.814Z,74.48
2019-03-12T07:02:46.996Z,73.38
2019-03-12T07:05:47.595Z,73.28
2019-03-12T07:08:43.550Z,73.69
2019-03-12T07:11:30.423Z,73.15
2019-03-12T07:14:16.671Z,73.03
2019-03-12T07:17:13.783Z,72.30
2019-03-12T07:19:55.329Z,71.26
2019-03-12T07:22:49.375Z,67.57
2019-03-12T07:25:33.815Z,58.94
2019-03-12T07:28:20.730Z,52.42
2019-03-12T07:31:07.750Z,48.46
2019-03-12T07:34:07.833Z,49.85
2019-03-12T07:36:47.115Z,51.57
2019-03-12T07:39:44.449Z,54.85
2019-03-12T07:42:23.594Z,56.76
2019-03-12T07:45:23.761Z,58.70
2019-03-12T07:48:06.789Z,59.00
2019-03-12T07:50:41.983Z,60.58
2019-03-12T07:53:36.382Z,62.47
2019-03-12T07:56:22.676Z,61.59
2019-03-12T07:59:13.678Z,62.39
2019-03-12T08:02:00.376Z,60.93
2019-03-12T08:04:43.474Z,60.21
2019-03-12T08:07:27.142Z,60.57
2019-03-12T08:10:07.916Z,58.21
2019-03-12T08:12:46.929Z,57.42
2019-03-12T08:15:40.990Z,56.58
2019-03-12T08:18:35.383Z,51.71
2019-03-12T08:21:22.478Z,48.17
2019-03-12T08:24:13.558Z,47.13
2019-03-12T08:26:47.732Z,46.95
2019-03-12T08:29:38.943Z,47.10
2019-03-12T08:32:13.990Z,47.48
2019-03-12T08:34:55.209Z,45.66
2019-03-12T08:37:33.469Z,45.94
2019-03-12T08:40:27.605Z,43.70
2019-03-12T08:43:28.041Z,43.39
2019-03-12T08:46:08.885Z,42.58
2019-03-12T08:48:55.911Z,42.91
2019-03-12T08:51:44.099Z,45.13
2019-03-12T08:54:24.987Z,46.08
2019-03-12T08:57:19.189Z,47.50
2019-03-12T09:00:00.770Z,49.52
2019-03-12T09:02:36.434Z,50.79
2019-03-12T09:05:40.451Z,52.49
2019-03-12T09:08:27.395Z,53.00
2019-03-12T09:11:15.574Z,55.68
2019-03-12T09:13:52.509Z,56.85
2019-03-12T09:16:44.492Z,57.59
2019-03-12T09:19:36.224Z,58.54
2019-03-12T09:22:34.984Z,59.76
2019-03-12T09:25:39.078Z,60.72
2019-03-12T09:28:27.260Z,61.13
2019-03-12T09:31:14.270Z,61.11
2019-03-12T09:34:01.358Z,62.07
2019-03-12T09:36:49.510Z,61.59
2019-03-12T09:39:37.626Z,61.41
2019-03-12T09:42:28.676Z,61.43
2019-03-12T09:45:15.476Z,61.60
2019-03-12T09:47:54.645Z,60.96
2019-03-12T09:50:37.655Z,62.62
2019-03-12T09:53:28.616Z,61.26
2019-03-12T09:56:16.755Z,62.74
2019-03-12T09:59:08.005Z,62.14
2019-03-12T10:01:47.289Z,62.79
2019-03-12T10:04:34.175Z,62.71
2019-03-12T10:07:21.085Z,62.92
2019-03-12T10:10:15.411Z,63.39
2019-03-12T10:13:02.295Z,62.81
2019-03-12T10:15:49.219Z,61.28
2019-03-12T10:18:35.720Z,61.42
2019-03-12T10:21:27.038Z,61.75
2019-03-12T10:24:06.653Z,60.70
2019-03-12T10:26:50.801Z,61.40
2019-03-12T10:29:26.452Z,61.80
2019-03-12T10:32:08.895Z,61.99
2019-03-12T10:34:52.938Z,61.87
2019-03-12T10:37:29.884Z,61.79
2019-03-12T10:40:25.000Z,61.81
2019-03-12T10:43:21.796Z,60.91
2019-03-12T10:46:01.871Z,61.02
2019-03-12T10:48:32.015Z,61.21
2019-03-12T10:51:01.670Z,60.88
2019-03-12T10:53:30.848Z,62.03
2019-03-12T10:56:00.046Z,61.83
2019-03-12T10:58:29.240Z,60.92
2019-03-12T11:00:58.415Z,59.79
2019-03-12T11:03:27.604Z,59.70
2019-03-12T11:05:56.816Z,60.45
2019-03-12T11:08:26.011Z,59.87
2019-03-12T11:10:55.196Z,59.55
2019-03-12T11:13:24.394Z,58.61
2019-03-12T11:15:53.573Z,57.85
2019-03-12T11:18:22.769Z,58.19
2019-03-12T11:20:51.949Z,58.65
2019-03-12T11:23:21.133Z,57.75
2019-03-12T11:25:50.385Z,57.67
2019-03-12T11:28:19.687Z,58.81
2019-03-12T11:30:48.863Z,58.30
2019-03-12T11:33:18.090Z,58.50
2019-03-12T11:35:47.266Z,57.53
2019-03-12T11:38:16.513Z,56.76
2019-03-12T11:40:45.809Z,57.47
2019-03-12T11:43:15.038Z,57.15
2019-03-12T11:45:44.237Z,57.86
2019-03-12T11:48:13.493Z,58.50
2019-03-12T11:50:42.664Z,58.89
2019-03-12T11:53:11.860Z,59.07
2019-03-12T11:55:41.081Z,58.12
2019-03-12T11:58:10.265Z,58.45
2019-03-12T12:00:46.556Z,58.64
2019-03-12T12:03:15.838Z,58.42
2019-03-12T12:05:45.257Z,58.19
2019-03-12T12:08:14.434Z,58.62
2019-03-12T12:10:43.609Z,58.08
2019-03-12T12:13:12.820Z,58.55
2019-03-12T12:15:42.007Z,58.42
2019-03-12T12:18:11.222Z,58.47
2019-03-12T12:20:40.408Z,58.68
2019-03-12T12:23:09.681Z,58.30
2019-03-12T12:25:38.958Z,57.89
2019-03-12T12:28:08.158Z,57.56
2019-03-12T12:30:37.437Z,57.57
2019-03-12T12:33:06.851Z,57.98
2019-03-12T12:35:36.126Z,57.68
2019-03-12T12:38:05.347Z,56.77
2019-03-12T12:40:34.554Z,56.92
2019-03-12T12:43:07.015Z,56.27
2019-03-12T12:45:36.378Z,56.12
2019-03-12T12:48:05.570Z,56.83
2019-03-12T12:50:34.799Z,56.69
2019-03-12T12:53:03.989Z,56.97
2019-03-12T12:55:33.211Z,56.79
2019-03-12T12:58:02.495Z,55.47
2019-03-12T13:00:31.993Z,55.97
2019-03-12T13:03:01.190Z,55.57
2019-03-12T13:05:30.378Z,56.20
2019-03-12T13:07:59.578Z,55.96
2019-03-12T13:10:28.867Z,55.22
2019-03-12T13:12:58.042Z,55.53
2019-03-12T13:15:27.302Z,54.93
2019-03-12T13:17:56.482Z,54.56
2019-03-12T13:20:25.692Z,54.68
2019-03-12T13:22:54.892Z,54.46
2019-03-12T13:25:24.078Z,54.43
2019-03-12T13:27:53.309Z,54.02
2019-03-12T13:30:22.620Z,54.63
2019-03-12T13:32:51.842Z,54.78
2019-03-12T13:35:21.409Z,54.15
2019-03-12T13:37:50.639Z,53.90
2019-03-12T13:40:21.011Z,53.10
2019-03-12T13:42:50.371Z,52.55
2019-03-12T13:45:19.942Z,52.53
2019-03-12T13:47:49.498Z,51.79
2019-03-12T13:50:18.900Z,50.99
2019-03-12T13:52:48.159Z,51.36
2019-03-12T13:55:17.412Z,51.96
2019-03-12T13:57:46.825Z,50.67
2019-03-12T14:00:20.140Z,50.66
2019-03-12T14:02:49.406Z,50.60
2019-03-12T14:05:18.576Z,50.74
2019-03-12T14:07:47.755Z,50.55
2019-03-12T14:10:19.323Z,49.74
2019-03-12T14:12:48.740Z,49.98
2019-03-12T14:15:20.592Z,49.92
2019-03-12T14:17:49.747Z,49.83
2019-03-12T14:20:39.288Z,49.93
2019-03-12T14:23:08.557Z,49.19
2019-03-12T14:25:38.235Z,48.83
2019-03-12T14:28:07.462Z,48.91
2019-03-12T14:30:36.838Z,48.71
2019-03-12T14:33:06.128Z,49.19
2019-03-12T14:35:35.308Z,48.26
2019-03-12T14:38:04.802Z,48.20
2019-03-12T14:40:33.977Z,48.59
2019-03-12T14:43:03.279Z,48.39
2019-03-12T14:45:34.239Z,48.86
2019-03-12T14:48:03.478Z,48.84
2019-03-12T14:50:32.669Z,48.92
2019-03-12T14:53:07.520Z,47.66
2019-03-12T14:55:36.201Z,47.99
2019-03-12T14:58:05.735Z,47.94
2019-03-12T15:00:35.066Z,47.63
2019-03-12T15:03:04.252Z,47.13
2019-03-12T15:05:33.632Z,46.82
2019-03-12T15:08:03.073Z,47.03
2019-03-12T15:10:32.314Z,46.29
2019-03-12T15:13:01.752Z,47.19
2019-03-12T15:15:30.923Z,47.11
2019-03-12T15:18:00.155Z,47.62
2019-03-12T15:20:29.335Z,46.55
2019-03-12T15:22:58.567Z,46.91
2019-03-12T15:25:27.775Z,47.06
2019-03-12T15:27:57.100Z,46.18
2019-03-12T15:30:26.473Z,46.76
2019-03-12T15:32:55.753Z,47.31
2019-03-12T15:35:24.997Z,46.49
2019-03-12T15:37:54.230Z,45.84
2019-03-12T15:40:23.442Z,46.08
2019-03-12T15:42:52.798Z,45.24
2019-03-12T15:45:22.344Z,45.33
2019-03-12T15:47:51.656Z,44.76
2019-03-12T15:50:20.967Z,44.44
2019-03-12T15:52:50.225Z,45.09
2019-03-12T15:55:19.480Z,45.57
2019-03-12T15:57:48.934Z,45.39
2019-03-12T16:00:18.568Z,45.37
2019-03-12T16:02:47.964Z,45.25
2019-03-12T16:05:17.458Z,45.08
2019-03-12T16:07:46.841Z,45.11
2019-03-12T16:10:19.174Z,45.49
2019-03-12T16:12:47.073Z,45.08
2019-03-12T16:15:23.556Z,46.30
2019-03-12T16:17:52.789Z,45.66
2019-03-12T16:20:22.241Z,45.25
2019-03-12T16:22:51.661Z,45.46
2019-03-12T16:25:22.321Z,45.83
2019-03-12T16:27:51.531Z,45.83
2019-03-12T16:30:20.900Z,45.81
2019-03-12T16:32:50.083Z,45.63
2019-03-12T16:35:19.480Z,46.12
2019-03-12T16:37:48.676Z,46.47
2019-03-12T16:40:18.109Z,46.76
2019-03-12T16:42:47.821Z,46.94
2019-03-12T16:45:17.122Z,47.23
2019-03-12T16:47:46.395Z,47.42
2019-03-12T16:50:15.717Z,47.10
2019-03-12T16:52:44.945Z,47.20
2019-03-12T16:55:14.317Z,47.77
2019-03-12T16:57:43.499Z,47.27
2019-03-12T17:00:12.868Z,47.21
2019-03-12T17:02:42.066Z,47.21
2019-03-12T17:05:11.372Z,46.74
2019-03-12T17:07:40.590Z,46.83
2019-03-12T17:10:10.678Z,47.24
2019-03-12T17:12:40.192Z,47.14
2019-03-12T17:15:11.720Z,47.04
2019-03-12T17:17:41.343Z,47.08
2019-03-12T17:20:12.217Z,47.64
2019-03-12T17:22:41.428Z,47.92
2019-03-12T17:25:11.229Z,47.43
2019-03-12T17:27:41.130Z,47.57
2019-03-12T17:30:14.487Z,47.07
2019-03-12T17:32:43.768Z,47.34
2019-03-12T17:35:14.458Z,47.51
2019-03-12T17:37:43.797Z,47.84
2019-03-12T17:40:15.818Z,47.47
2019-03-12T17:42:45.269Z,47.80
2019-03-12T17:45:15.068Z,47.71
2019-03-12T17:47:44.294Z,47.13
2019-03-12T17:50:13.791Z,47.32
2019-03-12T17:52:43.223Z,47.21
2019-03-12T17:55:12.879Z,47.30
2019-03-12T17:57:42.104Z,47.43
2019-03-12T18:00:17.222Z,47.03
2019-03-12T18:02:46.718Z,46.53
2019-03-12T18:05:16.196Z,46.94
2019-03-12T18:07:45.438Z,46.80
2019-03-12T18:10:14.870Z,46.79
2019-03-12T18:12:44.099Z,46.77
2019-03-12T18:15:15.001Z,46.58
2019-03-12T18:17:45.741Z,46.74
2019-03-12T18:20:15.859Z,46.01
2019-03-12T18:22:45.827Z,45.71
2019-03-12T18:25:20.940Z,45.61
2019-03-12T18:27:50.540Z,45.42
2019-03-12T18:30:21.989Z,45.08
2019-03-12T18:32:51.222Z,45.05
2019-03-12T18:35:20.471Z,45.48
2019-03-12T18:37:50.118Z,44.83
2019-03-12T18:40:20.283Z,44.85
2019-03-12T18:42:49.586Z,44.55
2019-03-12T18:45:20.584Z,43.86
2019-03-12T18:47:49.941Z,44.09
2019-03-12T18:50:19.472Z,44.17
2019-03-12T18:52:48.838Z,44.14
2019-03-12T18:55:43.232Z,43.47
2019-03-12T18:58:12.880Z,43.86
2019-03-12T19:00:42.713Z,43.33
2019-03-12T19:03:12.183Z,43.23
2019-03-12T19:05:41.550Z,43.04
2019-03-12T19:08:10.769Z,43.04
2019-03-12T19:10:40.027Z,42.42
2019-03-12T19:13:09.379Z,42.11
2019-03-12T19:15:38.650Z,42.17
2019-03-12T19:18:08.209Z,42.23
2019-03-12T19:20:38.214Z,41.84
2019-03-12T19:23:08.177Z,41.80
2019-03-12T19:25:38.544Z,41.77
2019-03-12T19:28:09.877Z,41.90
2019-03-12T19:30:39.577Z,41.79
2019-03-12T19:33:11.344Z,41.26
2019-03-12T19:35:41.039Z,41.33
2019-03-12T19:38:10.680Z,40.51
2019-03-12T19:40:40.426Z,40.48
2019-03-12T19:43:10.147Z,40.76
2019-03-12T19:45:39.591Z,41.03
2019-03-12T19:48:08.837Z,40.86
2019-03-12T19:50:38.257Z,40.93
2019-03-12T19:53:07.591Z,40.90
2019-03-12T19:55:39.645Z,40.61
2019-03-12T19:58:08.920Z,40.38
2019-03-12T20:00:38.903Z,40.22
2019-03-12T20:03:12.029Z,40.43
2019-03-12T20:05:39.603Z,39.86
2019-03-12T20:08:09.116Z,39.97
2019-03-12T20:11:16.818Z,39.85
2019-03-12T20:14:29.029Z,39.95
2019-03-12T20:17:42.200Z,40.29
2019-03-12T20:20:58.265Z,40.20
2019-03-12T20:24:17.320Z,39.77
2019-03-12T20:27:24.214Z,39.28
2019-03-12T20:30:31.690Z,39.76
2019-03-12T20:33:49.563Z,39.49
2019-03-12T20:36:54.489Z,39.24
2019-03-12T20:40:07.724Z,39.65
2019-03-12T20:43:21.115Z,39.05
2019-03-12T20:46:39.015Z,39.66
2019-03-12T20:50:05.504Z,39.17
2019-03-12T20:53:27.473Z,39.25
2019-03-12T20:56:30.937Z,39.36
2019-03-12T20:59:45.543Z,39.01
2019-03-12T21:03:14.314Z,38.99
2019-03-12T21:06:26.360Z,39.42
2019-03-12T21:09:48.308Z,40.27
2019-03-12T21:13:17.413Z,40.27
2019-03-12T21:16:13.237Z,41.16
2019-03-12T21:19:30.861Z,41.70
2019-03-12T21:22:35.204Z,42.19
2019-03-12T21:25:46.395Z,42.07
2019-03-12T21:28:56.581Z,42.07
2019-03-12T21:31:25.812Z,42.29
2019-03-12T21:33:55.037Z,42.46
2019-03-12T21:36:24.524Z,41.90
2019-03-12T21:38:53.712Z,42.62
2019-03-12T21:41:23.119Z,42.40
2019-03-12T21:43:52.333Z,42.57
2019-03-12T21:46:21.876Z,43.61
2019-03-12T21:48:51.078Z,45.01
2019-03-12T21:51:20.361Z,44.65
2019-03-12T21:53:49.573Z,45.32
2019-03-12T21:56:18.747Z,46.04
2019-03-12T21:58:47.966Z,47.06
2019-03-12T22:01:17.349Z,48.06
2019-03-12T22:03:46.576Z,48.24
2019-03-12T22:06:15.816Z,49.35
2019-03-12T22:08:45.035Z,48.95
2019-03-12T22:11:14.253Z,50.68
2019-03-12T22:13:43.462Z,50.17
2019-03-12T22:16:12.741Z,50.36
2019-03-12T22:18:41.945Z,50.45
2019-03-12T22:21:11.531Z,50.08
2019-03-12T22:23:44.316Z,50.11
2019-03-12T22:26:13.527Z,50.63
2019-03-12T22:28:42.746Z,50.84
2019-03-12T22:31:11.953Z,50.67
2019-03-12T22:33:41.129Z,50.67
2019-03-12T22:36:10.323Z,51.22
2019-03-12T22:38:39.587Z,50.48
2019-03-12T22:41:08.789Z,50.78
2019-03-12T22:43:37.995Z,50.30
2019-03-12T22:46:07.216Z,50.40
2019-03-12T22:48:36.431Z,50.34
2019-03-12T22:51:05.623Z,50.32
2019-03-12T22:53:34.821Z,50.13
2019-03-12T22:56:04.004Z,50.29
2019-03-12T22:58:33.261Z,50.58
2019-03-12T23:01:02.694Z,50.56
2019-03-12T23:03:31.916Z,50.84
2019-03-12T23:06:01.111Z,50.67
2019-03-12T23:08:30.285Z,50.89
2019-03-12T23:10:59.466Z,50.99
2019-03-12T23:13:28.683Z,51.33
2019-03-12T23:15:57.958Z,51.59
2019-03-12T23:18:27.156Z,52.69
2019-03-12T23:20:56.408Z,53.90
2019-03-12T23:23:25.596Z,56.67
2019-03-12T23:25:54.784Z,57.25
2019-03-12T23:28:24.006Z,59.62
2019-03-12T23:30:53.192Z,60.15
2019-03-12T23:33:22.373Z,60.47
2019-03-12T23:35:54.867Z,61.07
2019-03-12T23:38:24.083Z,60.91
2019-03-12T23:40:53.350Z,61.69
2019-03-12T23:43:22.591Z,62.50
2019-03-12T23:45:51.787Z,63.22
2019-03-12T23:48:20.963Z,63.20
2019-03-12T23:50:50.161Z,64.16
2019-03-12T23:53:19.344Z,64.75
2019-03-12T23:55:48.652Z,65.67
2019-03-12T23:58:17.956Z,65.33
